createdAt,value
2022-08-10T00:04:55.116Z,37.38
2022-08-10T00:14:56.776Z,37.61
2022-08-10T00:24:58.455Z,37.79
2022-08-10T00:35:00.045Z,37.65
2022-08-10T00:45:01.561Z,38.82
2022-08-10T00:55:05.358Z,38.33
2022-08-10T01:05:14.493Z,38.44
2022-08-10T01:15:26.847Z,39.06
2022-08-10T01:26:10.531Z,39.53
2022-08-10T01:36:19.375Z,40.42
2022-08-10T01:46:35.888Z,40.79
2022-08-10T01:56:40.339Z,40.92
2022-08-10T02:06:53.342Z,41.66
2022-08-10T02:16:55.427Z,42.04
2022-08-10T02:26:58.021Z,42.32
2022-08-10T02:37:10.837Z,42.61
2022-08-10T02:47:51.567Z,42.86
2022-08-10T02:58:12.658Z,43.21
2022-08-10T03:08:22.589Z,42.47
2022-08-10T03:18:24.964Z,43.09
2022-08-10T03:28:29.579Z,42.36
2022-08-10T03:38:31.112Z,42.87
2022-08-10T03:48:48.842Z,42.98
2022-08-10T03:58:51.336Z,43.34
2022-08-10T04:08:53.024Z,42.85
2022-08-10T04:18:54.522Z,43.19
2022-08-10T04:28:56.292Z,42.91
2022-08-10T04:38:58.159Z,42.82
2022-08-10T04:49:01.855Z,42.58
2022-08-10T04:59:08.617Z,41.93
2022-08-10T05:09:10.117Z,41.61
2022-08-10T05:19:11.832Z,41.50
2022-08-10T05:29:13.314Z,40.46
2022-08-10T05:39:15.325Z,39.43
2022-08-10T05:49:17.271Z,39.15
2022-08-10T06:00:10.977Z,38.61
2022-08-10T06:09:58.555Z,37.93
2022-08-10T06:20:02.283Z,36.66
2022-08-10T06:30:04.231Z,23.78
2022-08-10T06:40:27.486Z,15.01
2022-08-10T06:50:56.506Z,11.90
2022-08-10T07:01:03.000Z,11.33
2022-08-10T07:11:08.825Z,11.33
2022-08-10T07:21:14.838Z,9.99
2022-08-10T07:31:36.089Z,9.07
2022-08-10T07:41:44.233Z,7.35
2022-08-10T07:51:46.768Z,7.71
2022-08-10T08:01:58.075Z,10.33
2022-08-10T08:12:01.014Z,9.08
2022-08-10T08:24:05.628Z,9.53
2022-08-10T08:32:29.432Z,10.03
2022-08-10T08:42:50.763Z,8.55
2022-08-10T08:53:21.154Z,8.50
2022-08-10T09:04:00.796Z,9.33
2022-08-10T09:14:31.369Z,9.27
2022-08-10T09:24:45.010Z,9.40
2022-08-10T09:36:22.287Z,8.03
2022-08-10T09:45:32.100Z,8.93
2022-08-10T09:56:17.848Z,8.18
2022-08-10T10:06:45.880Z,8.73
2022-08-10T10:17:11.111Z,8.59
2022-08-10T10:27:40.612Z,8.25
2022-08-10T10:38:10.205Z,8.58
2022-08-10T10:48:17.680Z,9.52
2022-08-10T10:58:32.923Z,9.31
2022-08-10T11:09:01.850Z,11.41
2022-08-10T11:19:17.179Z,15.68
2022-08-10T11:29:30.827Z,16.59
2022-08-10T11:39:57.141Z,15.71
2022-08-10T11:50:07.162Z,15.65
2022-08-10T12:00:09.387Z,16.41
2022-08-10T12:10:14.591Z,17.14
2022-08-10T12:20:27.721Z,16.64
2022-08-10T12:30:40.885Z,16.30
2022-08-10T12:40:48.689Z,16.70
2022-08-10T12:51:06.755Z,16.01
2022-08-10T13:01:18.544Z,15.79
2022-08-10T13:12:44.677Z,17.41
2022-08-10T13:21:50.501Z,17.45
2022-08-10T13:32:09.269Z,16.22
2022-08-10T13:42:13.936Z,15.97
2022-08-10T13:52:20.919Z,16.31
2022-08-10T14:02:50.575Z,15.33
2022-08-10T14:12:53.745Z,14.96
2022-08-10T14:23:10.342Z,16.02
2022-08-10T14:33:19.244Z,15.80
2022-08-10T14:43:28.687Z,16.06
2022-08-10T14:53:34.987Z,16.46
2022-08-10T15:04:00.740Z,16.97
2022-08-10T15:14:34.124Z,15.86
2022-08-10T15:25:02.147Z,16.89
2022-08-10T15:35:25.489Z,16.15
2022-08-10T15:45:28.146Z,16.35
2022-08-10T15:55:51.579Z,18.15
2022-08-10T16:06:01.484Z,19.55
2022-08-10T16:16:07.442Z,19.98
2022-08-10T16:26:15.104Z,20.25
2022-08-10T16:36:20.883Z,19.81
2022-08-10T16:46:23.118Z,19.86
2022-08-10T16:56:34.114Z,19.77
2022-08-10T17:06:56.575Z,19.77
2022-08-10T17:17:05.472Z,20.83
2022-08-10T17:28:05.633Z,20.36
2022-08-10T17:37:38.321Z,21.17
2022-08-10T17:47:47.819Z,21.69
2022-08-10T17:57:50.257Z,21.94
2022-08-10T18:08:11.984Z,22.54
2022-08-10T18:18:20.350Z,22.86
2022-08-10T18:28:23.054Z,23.22
2022-08-10T18:38:25.821Z,24.39
2022-08-10T18:48:40.411Z,24.83
2022-08-10T18:59:16.967Z,25.79
2022-08-10T19:09:46.712Z,26.66
2022-08-10T19:20:01.890Z,27.21
2022-08-10T19:30:13.380Z,27.61
2022-08-10T19:40:46.431Z,28.07
2022-08-10T19:50:57.876Z,28.69
2022-08-10T20:01:02.318Z,28.61
2022-08-10T20:11:44.370Z,28.99
2022-08-10T20:21:47.265Z,29.98
2022-08-10T20:32:03.901Z,30.97
2022-08-10T20:42:15.953Z,31.00
2022-08-10T20:52:18.444Z,31.49
2022-08-10T21:02:32.938Z,31.55
2022-08-10T21:13:17.184Z,31.46
2022-08-10T21:23:20.366Z,31.90
2022-08-10T21:33:48.986Z,32.47
2022-08-10T21:44:25.651Z,32.61
2022-08-10T21:54:51.524Z,33.21
2022-08-10T22:05:11.729Z,33.50
2022-08-10T22:16:03.162Z,33.69
2022-08-10T22:26:29.724Z,33.63
2022-08-10T22:37:20.365Z,34.40
2022-08-10T22:47:42.952Z,34.49
2022-08-10T22:58:08.717Z,34.62
2022-08-10T23:08:29.613Z,35.64
2022-08-10T23:18:57.030Z,35.73
2022-08-10T23:29:09.646Z,35.88
2022-08-10T23:39:26.933Z,35.79
2022-08-10T23:49:37.129Z,36.60
2022-08-10T23:59:38.814Z,37.60
